createdAt,value
2023-05-12T00:01:16.902Z,97336.16
2023-05-12T00:03:43.665Z,97339.03
2023-05-12T00:06:11.310Z,97333.84
2023-05-12T00:08:37.920Z,97335.19
2023-05-12T00:11:04.366Z,97337.88
2023-05-12T00:13:30.979Z,97342.28
2023-05-12T00:15:59.234Z,97329.44
2023-05-12T00:18:26.394Z,97329.28
2023-05-12T00:20:54.772Z,97331.78
2023-05-12T00:23:22.269Z,97330.78
2023-05-12T00:25:49.049Z,97338.56
2023-05-12T00:28:15.560Z,97323.72
2023-05-12T00:30:42.014Z,97318.31
2023-05-12T00:33:08.460Z,97320.00
2023-05-12T00:35:35.031Z,97324.38
2023-05-12T00:38:01.492Z,97319.66
2023-05-12T00:40:28.099Z,97327.38
2023-05-12T00:42:54.641Z,97319.78
2023-05-12T00:45:21.849Z,97315.28
2023-05-12T00:47:48.759Z,97309.22
2023-05-12T00:50:15.380Z,97312.75
2023-05-12T00:52:42.517Z,97313.94
2023-05-12T00:55:09.354Z,97314.59
2023-05-12T00:57:35.784Z,97310.22
2023-05-12T01:00:02.847Z,97313.91
2023-05-12T01:02:30.972Z,97320.50
2023-05-12T01:04:57.745Z,97312.91
2023-05-12T01:07:25.331Z,97319.84
2023-05-12T01:09:56.457Z,97318.84
2023-05-12T01:12:24.318Z,97318.31
2023-05-12T01:14:52.429Z,97317.81
2023-05-12T01:17:28.149Z,97308.19
2023-05-12T01:20:01.609Z,97307.16
2023-05-12T01:22:31.788Z,97308.38
2023-05-12T01:25:04.675Z,97311.06
2023-05-12T01:27:33.155Z,97313.59
2023-05-12T01:30:04.965Z,97314.13
2023-05-12T01:32:34.818Z,97310.22
2023-05-12T01:35:02.311Z,97314.94
2023-05-12T01:37:31.118Z,97316.63
2023-05-12T01:39:59.290Z,97318.31
2023-05-12T01:42:26.218Z,97313.25
2023-05-12T01:44:53.086Z,97311.91
2023-05-12T01:47:20.870Z,97312.88
2023-05-12T01:49:54.534Z,97311.88
2023-05-12T01:52:21.062Z,97310.56
2023-05-12T01:54:47.525Z,97317.94
2023-05-12T01:57:14.442Z,97313.06
2023-05-12T01:59:41.054Z,97302.47
2023-05-12T02:02:07.699Z,97310.22
2023-05-12T02:04:34.710Z,97311.22
2023-05-12T02:07:02.019Z,97303.66
2023-05-12T02:09:29.174Z,97305.81
2023-05-12T02:12:00.703Z,97302.66
2023-05-12T02:14:27.753Z,97304.66
2023-05-12T02:16:55.617Z,97301.44
2023-05-12T02:19:24.147Z,97301.78
2023-05-12T02:21:50.851Z,97308.53
2023-05-12T02:24:17.365Z,97304.44
2023-05-12T02:26:44.801Z,97301.72
2023-05-12T02:29:13.133Z,97307.16
2023-05-12T02:31:39.687Z,97293.69
2023-05-12T02:34:15.181Z,97290.31
2023-05-12T02:36:41.669Z,97294.03
2023-05-12T02:39:08.367Z,97294.19
2023-05-12T02:41:35.554Z,97290.66
2023-05-12T02:44:02.078Z,97282.56
2023-05-12T02:46:28.522Z,97288.28
2023-05-12T02:48:55.741Z,97279.69
2023-05-12T02:51:22.222Z,97274.81
2023-05-12T02:53:48.809Z,97280.88
2023-05-12T02:56:16.212Z,97287.63
2023-05-12T02:58:42.904Z,97290.00
2023-05-12T03:01:11.484Z,97284.41
2023-05-12T03:03:39.741Z,97295.88
2023-05-12T03:06:06.766Z,97291.00
2023-05-12T03:08:33.288Z,97291.31
2023-05-12T03:11:00.636Z,97288.47
2023-05-12T03:13:27.218Z,97288.13
2023-05-12T03:15:54.368Z,97294.38
2023-05-12T03:18:20.944Z,97280.22
2023-05-12T03:20:47.735Z,97282.53
2023-05-12T03:23:14.237Z,97292.34
2023-05-12T03:25:40.729Z,97291.97
2023-05-12T03:28:07.230Z,97286.25
2023-05-12T03:30:34.138Z,97284.56
2023-05-12T03:33:00.924Z,97290.66
2023-05-12T03:35:28.990Z,97290.13
2023-05-12T03:37:55.456Z,97290.31
2023-05-12T03:40:22.324Z,97301.44
2023-05-12T03:42:48.996Z,97301.28
2023-05-12T03:45:17.956Z,97304.63
2023-05-12T03:47:44.668Z,97301.09
2023-05-12T03:50:11.390Z,97297.41
2023-05-12T03:52:38.656Z,97296.38
2023-05-12T03:55:08.619Z,97304.81
2023-05-12T03:57:36.426Z,97292.34
2023-05-12T04:00:03.916Z,97299.91
2023-05-12T04:02:39.187Z,97296.38
2023-05-12T04:05:08.698Z,97303.47
2023-05-12T04:07:35.788Z,97292.63
2023-05-12T04:10:02.822Z,97298.03
2023-05-12T04:12:29.349Z,97293.00
2023-05-12T04:14:56.175Z,97297.69
2023-05-12T04:17:24.295Z,97306.16
2023-05-12T04:19:53.395Z,97308.66
2023-05-12T04:22:19.928Z,97308.19
2023-05-12T04:24:46.442Z,97307.16
2023-05-12T04:27:13.073Z,97312.25
2023-05-12T04:29:39.652Z,97314.06
2023-05-12T04:32:06.418Z,97321.31
2023-05-12T04:34:34.535Z,97328.75
2023-05-12T04:37:01.198Z,97333.16
2023-05-12T04:39:28.551Z,97328.09
2023-05-12T04:41:55.286Z,97326.06
2023-05-12T04:44:23.909Z,97333.81
2023-05-12T04:46:53.427Z,97332.84
2023-05-12T04:49:20.348Z,97334.69
2023-05-12T04:51:47.591Z,97332.13
2023-05-12T04:54:14.151Z,97335.19
2023-05-12T04:56:41.000Z,97335.19
2023-05-12T04:59:07.754Z,97331.44
2023-05-12T05:01:34.400Z,97331.28
2023-05-12T05:04:01.337Z,97332.28
2023-05-12T05:06:28.314Z,97343.28
2023-05-12T05:08:55.877Z,97340.56
2023-05-12T05:11:22.765Z,97340.22
2023-05-12T05:13:49.378Z,97339.53
2023-05-12T05:16:17.309Z,97342.22
2023-05-12T05:18:46.594Z,97336.84
2023-05-12T05:21:16.652Z,97340.72
2023-05-12T05:23:43.631Z,97336.78
2023-05-12T05:26:10.658Z,97341.38
2023-05-12T05:28:39.854Z,97350.50
2023-05-12T05:31:07.055Z,97340.16
2023-05-12T05:33:34.360Z,97343.03
2023-05-12T05:36:01.110Z,97340.16
2023-05-12T05:38:27.715Z,97346.25
2023-05-12T05:40:54.793Z,97347.56
2023-05-12T05:43:23.090Z,97347.69
2023-05-12T05:45:50.233Z,97357.03
2023-05-12T05:48:18.005Z,97343.84
2023-05-12T05:50:44.970Z,97349.19
2023-05-12T05:53:11.458Z,97349.72
2023-05-12T05:55:37.979Z,97343.84
2023-05-12T05:58:04.540Z,97347.84
2023-05-12T06:00:31.305Z,97351.75
2023-05-12T06:02:57.846Z,97347.66
2023-05-12T06:05:24.481Z,97351.03
2023-05-12T06:07:51.048Z,97361.63
2023-05-12T06:10:17.601Z,97357.75
2023-05-12T06:12:44.228Z,97367.53
2023-05-12T06:15:11.196Z,97388.47
2023-05-12T06:17:37.920Z,97385.59
2023-05-12T06:20:05.390Z,97383.06
2023-05-12T06:22:33.106Z,97386.75
2023-05-12T06:24:59.626Z,97385.06
2023-05-12T06:27:26.137Z,97386.09
2023-05-12T06:29:52.660Z,97383.88
2023-05-12T06:32:19.254Z,97395.19
2023-05-12T06:34:45.792Z,97388.78
2023-05-12T06:37:12.353Z,97384.88
2023-05-12T06:39:38.887Z,97397.19
2023-05-12T06:42:05.538Z,97397.88
2023-05-12T06:44:42.074Z,97406.63
2023-05-12T06:47:09.162Z,97396.44
2023-05-12T06:49:37.094Z,97397.97
2023-05-12T06:52:04.070Z,97395.09
2023-05-12T06:54:30.568Z,97391.03
2023-05-12T06:56:58.316Z,97399.31
2023-05-12T06:59:25.116Z,97403.06
2023-05-12T07:01:51.800Z,97399.63
2023-05-12T07:04:18.360Z,97396.75
2023-05-12T07:06:44.786Z,97402.06
2023-05-12T07:09:11.418Z,97397.44
2023-05-12T07:11:37.974Z,97396.72
2023-05-12T07:14:04.667Z,97393.38
2023-05-12T07:16:32.421Z,97396.00
2023-05-12T07:18:58.959Z,97390.41
2023-05-12T07:21:25.462Z,97390.41
2023-05-12T07:23:51.956Z,97392.88
2023-05-12T07:26:18.636Z,97394.59
2023-05-12T07:28:45.077Z,97391.00
2023-05-12T07:31:11.612Z,97385.47
2023-05-12T07:33:38.309Z,97387.91
2023-05-12T07:36:04.923Z,97386.75
2023-05-12T07:38:32.102Z,97386.31
2023-05-12T07:41:00.548Z,97392.69
2023-05-12T07:43:27.019Z,97392.22
2023-05-12T07:45:54.645Z,97389.44
2023-05-12T07:48:21.092Z,97391.28
2023-05-12T07:50:47.710Z,97383.63
2023-05-12T07:53:14.229Z,97384.81
2023-05-12T07:55:41.244Z,97383.94
2023-05-12T07:58:07.707Z,97384.59
2023-05-12T08:00:34.393Z,97386.13
2023-05-12T08:03:01.137Z,97390.47
2023-05-12T08:05:27.861Z,97381.22
2023-05-12T08:07:54.358Z,97391.16
2023-05-12T08:10:20.855Z,97386.41
2023-05-12T08:12:47.378Z,97389.09
2023-05-12T08:15:13.923Z,97395.25
2023-05-12T08:17:40.487Z,97391.53
2023-05-12T08:20:07.355Z,97389.75
2023-05-12T08:22:33.870Z,97395.47
2023-05-12T08:25:00.506Z,97397.44
2023-05-12T08:27:27.161Z,97394.81
2023-05-12T08:29:53.706Z,97395.00
2023-05-12T08:32:20.294Z,97397.66
2023-05-12T08:34:46.848Z,97403.91
2023-05-12T08:37:13.388Z,97401.69
2023-05-12T08:39:39.999Z,97402.63
2023-05-12T08:42:09.393Z,97406.56
2023-05-12T08:44:37.349Z,97404.38
2023-05-12T08:47:04.205Z,97405.09
2023-05-12T08:49:31.760Z,97410.97
2023-05-12T08:51:59.490Z,97416.50
2023-05-12T08:54:27.126Z,97414.97
2023-05-12T08:59:24.403Z,97419.03
2023-05-12T09:01:51.289Z,97417.72
2023-05-12T09:04:18.053Z,97426.78
2023-05-12T09:06:45.241Z,97423.53
2023-05-12T09:09:13.020Z,97416.69
2023-05-12T09:11:40.295Z,97420.13
2023-05-12T09:14:06.747Z,97430.00
2023-05-12T09:16:34.203Z,97428.47
2023-05-12T09:19:01.361Z,97430.22
2023-05-12T09:21:28.630Z,97438.19
2023-05-12T09:23:55.093Z,97435.50
2023-05-12T09:26:22.965Z,97437.28
2023-05-12T09:28:50.398Z,97436.59
2023-05-12T09:31:17.801Z,97431.09
2023-05-12T09:33:44.360Z,97427.44
2023-05-12T09:36:11.237Z,97425.88
2023-05-12T09:38:37.662Z,97430.06
2023-05-12T09:41:04.421Z,97430.16
2023-05-12T09:43:30.949Z,97418.94
2023-05-12T09:45:57.534Z,97431.25
2023-05-12T09:48:26.104Z,97428.34
2023-05-12T09:50:53.880Z,97426.78
2023-05-12T09:53:22.833Z,97430.72
2023-05-12T09:55:49.324Z,97429.50
2023-05-12T09:58:17.126Z,97421.25
2023-05-12T10:01:06.663Z,97413.50
2023-05-12T10:03:30.933Z,97427.03
2023-05-12T10:06:01.581Z,97418.53
2023-05-12T10:08:32.158Z,97425.97
2023-05-12T10:10:59.523Z,97421.03
2023-05-12T10:13:26.446Z,97419.78
2023-05-12T10:15:55.817Z,97423.69
2023-05-12T10:18:22.534Z,97426.31
2023-05-12T10:20:49.101Z,97421.09
2023-05-12T10:23:17.573Z,97417.81
2023-05-12T10:25:44.228Z,97419.06
2023-05-12T10:28:11.919Z,97422.25
2023-05-12T10:30:39.103Z,97415.41
2023-05-12T10:33:08.595Z,97420.41
2023-05-12T10:35:35.905Z,97420.53
2023-05-12T10:38:06.107Z,97420.41
2023-05-12T10:40:32.644Z,97423.19
2023-05-12T10:43:00.791Z,97419.03
2023-05-12T10:45:27.812Z,97422.06
2023-05-12T10:48:04.561Z,97417.16
2023-05-12T10:50:31.339Z,97421.66
2023-05-12T10:52:57.825Z,97415.25
2023-05-12T10:55:31.808Z,97423.22
2023-05-12T10:58:12.309Z,97427.31
2023-05-12T11:00:46.900Z,97435.31
2023-05-12T11:03:15.101Z,97435.50
2023-05-12T11:05:44.199Z,97436.81
2023-05-12T11:08:11.698Z,97433.50
2023-05-12T11:10:40.981Z,97435.13
2023-05-12T11:13:07.622Z,97444.00
2023-05-12T11:15:34.049Z,97444.84
2023-05-12T11:18:02.459Z,97442.88
2023-05-12T11:20:30.895Z,97444.00
2023-05-12T11:22:57.847Z,97446.41
2023-05-12T11:25:26.055Z,97447.09
2023-05-12T11:27:52.555Z,97445.28
2023-05-12T11:30:19.810Z,97454.50
2023-05-12T11:32:46.917Z,97460.22
2023-05-12T11:35:14.510Z,97454.59
2023-05-12T11:37:41.653Z,97447.03
2023-05-12T11:40:18.482Z,97454.09
2023-05-12T11:42:48.515Z,97442.53
2023-05-12T11:45:24.855Z,97455.56
2023-05-12T11:47:51.967Z,97447.09
2023-05-12T11:50:25.071Z,97454.56
2023-05-12T11:52:52.414Z,97453.28
2023-05-12T11:55:23.488Z,97454.41
2023-05-12T11:57:58.575Z,97449.34
2023-05-12T12:00:32.932Z,97449.38
2023-05-12T12:03:06.601Z,97452.84
2023-05-12T12:05:33.253Z,97449.16
2023-05-12T12:08:14.495Z,97444.44
2023-05-12T12:10:47.215Z,97452.50
2023-05-12T12:13:19.634Z,97453.00
2023-05-12T12:15:46.131Z,97463.47
2023-05-12T12:18:12.720Z,97452.69
2023-05-12T12:20:39.216Z,97461.53
2023-05-12T12:23:05.664Z,97450.00
2023-05-12T12:25:32.144Z,97463.50
2023-05-12T12:27:58.632Z,97453.81
2023-05-12T12:30:25.264Z,97461.41
2023-05-12T12:32:51.976Z,97455.06
2023-05-12T12:35:18.723Z,97459.22
2023-05-12T12:37:51.155Z,97461.63
2023-05-12T12:40:18.421Z,97450.56
2023-05-12T12:42:45.234Z,97456.28
2023-05-12T12:45:12.034Z,97455.50
2023-05-12T12:47:39.003Z,97468.44
2023-05-12T12:50:07.296Z,97468.91
2023-05-12T12:52:33.857Z,97469.56
2023-05-12T12:55:00.340Z,97467.50
2023-05-12T12:57:27.387Z,97469.00
2023-05-12T12:59:53.989Z,97466.91
2023-05-12T13:02:20.668Z,97475.59
2023-05-12T13:04:47.202Z,97467.97
2023-05-12T13:07:13.752Z,97468.16
2023-05-12T13:09:40.299Z,97463.75
2023-05-12T13:12:06.981Z,97467.50
2023-05-12T13:14:33.489Z,97470.34
2023-05-12T13:16:59.963Z,97469.47
2023-05-12T13:19:26.397Z,97464.50
2023-05-12T13:21:52.864Z,97458.16
2023-05-12T13:24:19.361Z,97465.69
2023-05-12T13:26:45.766Z,97470.31
2023-05-12T13:29:12.701Z,97466.75
2023-05-12T13:31:41.137Z,97461.72
2023-05-12T13:34:07.611Z,97472.47
2023-05-12T13:36:34.701Z,97461.22
2023-05-12T13:39:02.737Z,97469.81
2023-05-12T13:41:29.529Z,97472.09
2023-05-12T13:43:56.277Z,97473.16
2023-05-12T13:46:22.913Z,97474.38
2023-05-12T13:48:51.348Z,97477.81
2023-05-12T13:51:18.093Z,97482.53
2023-05-12T13:53:44.564Z,97482.72
2023-05-12T13:56:17.279Z,97485.44
2023-05-12T13:58:44.405Z,97493.22
2023-05-12T14:01:11.279Z,97478.94
2023-05-12T14:03:38.060Z,97485.16
2023-05-12T14:06:04.904Z,97483.63
2023-05-12T14:08:31.487Z,97483.13
2023-05-12T14:10:58.236Z,97483.00
2023-05-12T14:13:26.002Z,97487.94
2023-05-12T14:15:53.911Z,97486.06
2023-05-12T14:18:20.935Z,97489.97
2023-05-12T14:20:47.616Z,97490.53
2023-05-12T14:23:14.167Z,97486.38
2023-05-12T14:25:40.820Z,97491.31
2023-05-12T14:28:07.415Z,97496.69
2023-05-12T14:30:37.438Z,97492.63
2023-05-12T14:33:04.240Z,97489.50
2023-05-12T14:35:30.811Z,97497.22
2023-05-12T14:37:57.801Z,97503.75
2023-05-12T14:40:24.726Z,97496.97
2023-05-12T14:42:51.303Z,97489.06
2023-05-12T14:45:18.130Z,97499.47
2023-05-12T14:47:44.833Z,97499.41
2023-05-12T14:50:11.499Z,97494.31
2023-05-12T14:52:41.003Z,97493.25
2023-05-12T14:55:11.604Z,97495.84
2023-05-12T14:57:38.708Z,97494.50
2023-05-12T15:00:06.872Z,97503.19
2023-05-12T15:02:34.637Z,97497.97
2023-05-12T15:05:01.200Z,97502.22
2023-05-12T15:07:27.645Z,97501.69
2023-05-12T15:09:54.194Z,97505.44
2023-05-12T15:12:20.627Z,97492.03
2023-05-12T15:14:47.159Z,97506.34
2023-05-12T15:17:13.601Z,97510.63
2023-05-12T15:19:40.258Z,97515.81
2023-05-12T15:22:07.587Z,97513.53
2023-05-12T15:24:34.191Z,97509.22
2023-05-12T15:27:00.774Z,97505.53
2023-05-12T15:29:27.232Z,97508.16
2023-05-12T15:31:54.338Z,97509.25
2023-05-12T15:34:20.980Z,97520.28
2023-05-12T15:36:48.835Z,97520.59
2023-05-12T15:39:16.264Z,97515.06
2023-05-12T15:41:43.123Z,97520.34
2023-05-12T15:44:09.666Z,97515.59
2023-05-12T15:46:37.124Z,97523.38
2023-05-12T15:49:03.804Z,97518.19
2023-05-12T15:51:31.320Z,97516.34
2023-05-12T15:53:57.983Z,97530.22
2023-05-12T15:56:24.456Z,97534.03
2023-05-12T15:58:50.921Z,97515.34
2023-05-12T16:01:17.578Z,97527.63
2023-05-12T16:03:44.284Z,97528.97
2023-05-12T16:06:10.784Z,97534.44
2023-05-12T16:08:37.227Z,97533.19
2023-05-12T16:11:03.662Z,97532.50
2023-05-12T16:13:30.602Z,97540.69
2023-05-12T16:15:57.132Z,97532.78
2023-05-12T16:18:23.713Z,97533.88
2023-05-12T16:20:50.228Z,97534.88
2023-05-12T16:23:16.769Z,97536.59
2023-05-12T16:25:44.806Z,97540.63
2023-05-12T16:28:11.293Z,97541.97
2023-05-12T16:30:37.850Z,97542.94
2023-05-12T16:33:04.401Z,97545.69
2023-05-12T16:35:30.992Z,97549.41
2023-05-12T16:37:57.443Z,97548.34
2023-05-12T16:40:23.909Z,97550.13
2023-05-12T16:42:50.814Z,97549.47
2023-05-12T16:45:17.361Z,97553.09
2023-05-12T16:47:43.946Z,97551.50
2023-05-12T16:50:11.588Z,97565.53
2023-05-12T16:52:38.149Z,97556.28
2023-05-12T16:55:04.801Z,97561.03
2023-05-12T16:57:32.060Z,97556.91
2023-05-12T16:59:58.624Z,97567.38
2023-05-12T17:02:25.236Z,97571.47
2023-05-12T17:04:51.777Z,97568.44
2023-05-12T17:07:18.618Z,97571.16
2023-05-12T17:09:45.055Z,97575.88
2023-05-12T17:12:11.518Z,97579.56
2023-05-12T17:14:37.995Z,97577.25
2023-05-12T17:17:04.753Z,97577.91
2023-05-12T17:19:31.346Z,97579.56
2023-05-12T17:21:57.826Z,97576.88
2023-05-12T17:24:24.402Z,97584.69
2023-05-12T17:26:50.834Z,97585.19
2023-05-12T17:29:17.685Z,97584.56
2023-05-12T17:31:44.260Z,97592.78
2023-05-12T17:34:11.051Z,97589.22
2023-05-12T17:36:37.967Z,97593.78
2023-05-12T17:39:04.455Z,97589.44
2023-05-12T17:41:32.961Z,97587.56
2023-05-12T17:43:59.442Z,97593.00
2023-05-12T17:46:25.964Z,97599.72
2023-05-12T17:48:52.410Z,97605.63
2023-05-12T17:51:18.936Z,97604.28
2023-05-12T17:53:46.242Z,97602.56
2023-05-12T17:56:12.719Z,97599.56
2023-05-12T17:58:39.257Z,97607.50
2023-05-12T18:01:05.815Z,97612.72
2023-05-12T18:03:32.363Z,97610.88
2023-05-12T18:05:59.373Z,97607.34
2023-05-12T18:08:27.106Z,97608.38
2023-05-12T18:10:53.769Z,97608.31
2023-05-12T18:13:20.243Z,97609.53
2023-05-12T18:15:48.325Z,97612.38
2023-05-12T18:18:14.843Z,97613.06
2023-05-12T18:20:41.420Z,97613.75
2023-05-12T18:23:07.901Z,97610.19
2023-05-12T18:25:34.404Z,97612.03
2023-05-12T18:28:00.880Z,97611.88
2023-05-12T18:30:27.411Z,97612.72
2023-05-12T18:32:54.052Z,97612.56
2023-05-12T18:35:20.806Z,97615.59
2023-05-12T18:37:47.472Z,97618.13
2023-05-12T18:40:14.202Z,97621.84
2023-05-12T18:42:40.688Z,97631.81
2023-05-12T18:45:07.436Z,97625.22
2023-05-12T18:47:34.328Z,97629.97
2023-05-12T18:50:00.842Z,97628.63
2023-05-12T18:52:27.316Z,97630.81
2023-05-12T18:54:53.755Z,97633.84
2023-05-12T18:57:20.825Z,97624.88
2023-05-12T18:59:47.329Z,97636.38
2023-05-12T19:02:13.790Z,97638.94
2023-05-12T19:04:40.473Z,97644.16
2023-05-12T19:07:09.638Z,97646.84
2023-05-12T19:09:36.713Z,97642.81
2023-05-12T19:12:06.241Z,97642.13
2023-05-12T19:14:33.071Z,97643.81
2023-05-12T19:16:59.553Z,97651.94
2023-05-12T19:19:26.032Z,97651.06
2023-05-12T19:21:52.531Z,97654.59
2023-05-12T19:24:19.409Z,97651.91
2023-05-12T19:26:45.867Z,97658.00
2023-05-12T19:29:12.329Z,97656.66
2023-05-12T19:31:38.828Z,97659.66
2023-05-12T19:34:05.423Z,97667.28
2023-05-12T19:36:31.955Z,97665.75
2023-05-12T19:39:00.255Z,97666.44
2023-05-12T19:41:27.909Z,97665.06
2023-05-12T19:43:54.888Z,97668.31
2023-05-12T19:46:21.578Z,97668.75
2023-05-12T19:48:48.214Z,97668.78
2023-05-12T19:51:14.800Z,97676.03
2023-05-12T19:53:43.071Z,97680.94
2023-05-12T19:56:09.832Z,97682.66
2023-05-12T19:58:36.284Z,97683.31
2023-05-12T20:01:02.818Z,97680.41
2023-05-12T20:03:29.357Z,97682.78
2023-05-12T20:05:55.860Z,97676.72
2023-05-12T20:08:22.738Z,97677.56
2023-05-12T20:10:49.214Z,97686.28
2023-05-12T20:13:15.743Z,97689.16
2023-05-12T20:15:43.979Z,97689.75
2023-05-12T20:18:12.664Z,97679.88
2023-05-12T20:20:39.220Z,97679.22
2023-05-12T20:23:05.823Z,97677.81
2023-05-12T20:25:33.137Z,97676.31
2023-05-12T20:27:59.827Z,97685.56
2023-05-12T20:30:26.723Z,97688.53
2023-05-12T20:32:53.270Z,97687.06
2023-05-12T20:35:20.459Z,97683.47
2023-05-12T20:37:47.398Z,97686.81
2023-05-12T20:40:13.940Z,97685.34
2023-05-12T20:42:40.509Z,97684.25
2023-05-12T20:45:07.443Z,97684.50
2023-05-12T20:47:34.866Z,97690.31
2023-05-12T20:50:05.489Z,97691.97
2023-05-12T20:52:33.502Z,97688.22
2023-05-12T20:55:00.227Z,97698.38
2023-05-12T20:57:27.124Z,97689.25
2023-05-12T20:59:54.510Z,97689.31
2023-05-12T21:02:21.190Z,97690.88
2023-05-12T21:04:47.751Z,97690.09
2023-05-12T21:07:14.214Z,97695.97
2023-05-12T21:09:40.787Z,97692.28
2023-05-12T21:12:07.526Z,97688.56
2023-05-12T21:14:37.796Z,97693.34
2023-05-12T21:17:04.292Z,97686.16
2023-05-12T21:19:30.851Z,97689.13
2023-05-12T21:21:57.299Z,97691.59
2023-05-12T21:24:23.748Z,97693.75
2023-05-12T21:26:50.264Z,97691.97
2023-05-12T21:29:16.913Z,97695.25
2023-05-12T21:31:43.474Z,97693.50
2023-05-12T21:34:09.922Z,97693.03
2023-05-12T21:36:36.400Z,97695.72
2023-05-12T21:39:02.867Z,97701.75
2023-05-12T21:41:29.327Z,97696.56
2023-05-12T21:43:55.856Z,97699.00
2023-05-12T21:46:22.367Z,97697.97
2023-05-12T21:48:48.833Z,97702.34
2023-05-12T21:51:15.415Z,97695.97
2023-05-12T21:53:41.889Z,97697.25
2023-05-12T21:56:08.394Z,97694.06
2023-05-12T21:58:34.806Z,97701.56
2023-05-12T22:01:01.285Z,97704.06
2023-05-12T22:03:27.814Z,97704.06
2023-05-12T22:05:54.469Z,97706.34
2023-05-12T22:08:21.231Z,97705.94
2023-05-12T22:10:47.778Z,97707.84
2023-05-12T22:13:14.542Z,97707.25
2023-05-12T22:15:41.922Z,97708.63
2023-05-12T22:18:08.472Z,97708.84
2023-05-12T22:20:35.055Z,97701.09
2023-05-12T22:23:02.067Z,97710.09
2023-05-12T22:25:28.604Z,97698.59
2023-05-12T22:27:55.090Z,97702.09
2023-05-12T22:30:21.881Z,97705.28
2023-05-12T22:32:48.490Z,97705.22
2023-05-12T22:35:15.072Z,97703.25
2023-05-12T22:37:41.572Z,97707.28
2023-05-12T22:40:08.375Z,97709.94
2023-05-12T22:42:34.919Z,97696.00
2023-05-12T22:45:04.592Z,97705.41
2023-05-12T22:47:32.199Z,97700.31
2023-05-12T22:49:59.012Z,97697.72
2023-05-12T22:52:25.459Z,97697.47
2023-05-12T22:54:53.057Z,97704.25
2023-05-12T22:57:20.120Z,97697.91
2023-05-12T22:59:46.622Z,97699.41
2023-05-12T23:02:13.170Z,97696.41
2023-05-12T23:04:39.658Z,97704.34
2023-05-12T23:07:08.875Z,97699.53
2023-05-12T23:09:36.447Z,97696.00
2023-05-12T23:12:03.394Z,97696.72
2023-05-12T23:14:29.871Z,97692.03
2023-05-12T23:16:56.415Z,97696.63
2023-05-12T23:19:22.936Z,97704.19
2023-05-12T23:21:49.368Z,97703.06
2023-05-12T23:24:15.983Z,97699.31
2023-05-12T23:26:42.444Z,97696.25
2023-05-12T23:29:09.089Z,97698.81
2023-05-12T23:31:35.527Z,97688.91
2023-05-12T23:34:02.009Z,97685.06
2023-05-12T23:36:29.887Z,97693.50
2023-05-12T23:38:56.818Z,97688.38
2023-05-12T23:41:23.293Z,97681.06
2023-05-12T23:43:49.830Z,97675.47
2023-05-12T23:46:16.319Z,97675.75
2023-05-12T23:48:43.093Z,97676.03
2023-05-12T23:51:09.580Z,97677.00
2023-05-12T23:53:36.138Z,97672.56
2023-05-12T23:56:02.603Z,97673.78
2023-05-12T23:58:29.043Z,97683.47
